Lexington, KY (40555)

1:59 PM EDT on October 31, 2014 (GMT -0400)
Plainview | Change Station
CLOSE
Current Station
Personal Weather Station
Location: Lexington, KY
Elevation: 1001 ft
Nearby Weather Stations
Active Advisory: Freeze Warning, Special Statement

Elev 1001 ft 38.00 °N, 84.46 °W | Updated 11 minutes ago

Overcast
Overcast
47.3 °F
Feels Like 47 °F
N
0.0
Wind Variable Wind from East

Today
High -- | Low -- °F
--% Chance of Precip.
Yesterday
High -- | Low -- °F
Precip. -- in
8:02 AM 6:39 PM
First Quarter, 57% visible
Pressure 29.92 in
Visibility 6.0 miles
Clouds Mostly Cloudy 1200 ft
Mostly Cloudy 2400 ft
Overcast 4400 ft
Windchill 47 °F
Dew Point 45 °F
Humidity 92%
Rainfall 0.10 in
Snow Depth Not available.
UV 1 out of 12
Pollen .30 out of 12
Air Quality Not available.
Flu Activity Not available.
METAR KLEX 311754Z 28008KT 6SM HZ BKN012 BKN024 OVC044 09/06 A2991 RMK AO2 SLP131 60003 T00940061 10094 20078 58019

More Conditions Fewer Conditions

Pressure 29.92 in
Visibility 6.0 miles
Clouds Mostly Cloudy 1200 ft
Mostly Cloudy 2400 ft
Overcast 4400 ft
Windchill 47 °F
Dew Point 45 °F
Humidity 92%
Rainfall 0.10 in
Snow Depth Not available.
UV 1 out of 12
Pollen .30 out of 12
Air Quality Not available.
Flu Activity Not available.
METAR KLEX 311754Z 28008KT 6SM HZ BKN012 BKN024 OVC044 09/06 A2991 RMK AO2 SLP131 60003 T00940061 10094 20078 58019

More Conditions Fewer Conditions

10-Day Weather Forecast

Almanac

Astronomy

Oct. 31, 2014 Rise Set
Actual Time
Civil Twilight
Nautical Twilight
Astronomical Twilight
Moon
Length of Visible Light
Length of Day
Tomorrow will be .
, % of the Moon is Illuminated

Today's Extremes

State Highs State Lows

Community

WunderPhotos

Upload Photos

1,766,673 photos uploaded!

WunderBlogs® & News

Nearby

Air Quality

  Air Quality AQ Index Pollutant
Not available.

Snow Depth

Station Depth Elevation

Earthquake Activity

City Distance Mag. Time & Date
Minimum magnitude displayed is 2.5.

Coastal Water Temperatures

Place Temperature

Nearby Weather Stations